Time;durP1;ratioP1;P1;durP2;ratioP2;P2;SDS_P1;SDS_P2;PMS_P1;PMS_P2;Temp;Humidity;BMP_temperature;BMP_pressure;BME280_temperature;BME280_humidity;BME280_pressure;Samples;Min_cycle;Max_cycle;Signal;HPM_P1;HPM_P2
2021/03/31 04:02:17;;;;;;;17.87;11.17;;;9.10;99.90;;;;;;5154741;23;20555;-69
2021/03/31 04:04:43;;;;;;;11.17;8.13;;;9.10;99.90;;;;;;4998804;28;20453;-70
2021/03/31 04:07:09;;;;;;;11.50;7.57;;;9.10;99.90;;;;;;4998278;28;20796;-69
2021/03/31 04:09:36;;;;;;;11.47;8.77;;;9.10;99.90;;;;;;4998227;28;20453;-69
2021/03/31 04:12:03;;;;;;;18.30;10.00;;;9.10;99.90;;;;;;5021367;23;20481;-64
2021/03/31 04:14:30;;;;;;;11.30;8.33;;;9.10;99.90;;;;;;4998642;28;20464;-65
2021/03/31 04:16:57;;;;;;;14.17;9.17;;;8.90;99.90;;;;;;4998887;28;20461;-66
2021/03/31 04:19:24;;;;;;;14.47;9.77;;;8.90;99.90;;;;;;4997902;28;20556;-64
2021/03/31 04:21:51;;;;;;;13.30;8.93;;;8.80;99.90;;;;;;4998031;28;20480;-65
2021/03/31 04:24:17;;;;;;;15.43;9.00;;;8.70;99.90;;;;;;4998025;28;20461;-65
2021/03/31 04:26:45;;;;;;;13.33;8.90;;;8.70;99.90;;;;;;4998009;28;20450;-65
2021/03/31 04:29:13;;;;;;;10.80;8.40;;;8.60;99.90;;;;;;4997865;28;20481;-64
2021/03/31 04:31:40;;;;;;;14.10;8.40;;;8.60;99.90;;;;;;4997948;28;20473;-65
2021/03/31 04:34:07;;;;;;;11.57;8.30;;;8.60;99.90;;;;;;4997995;28;20460;-64
2021/03/31 04:36:35;;;;;;;18.00;9.43;;;8.60;99.90;;;;;;4998098;28;20454;-70
2021/03/31 04:39:05;;;;;;;11.87;8.10;;;8.60;99.90;;;;;;4997835;28;20453;-65
2021/03/31 04:41:31;;;;;;;12.77;9.20;;;8.70;99.90;;;;;;4998063;28;20839;-64
2021/03/31 04:43:58;;;;;;;12.27;9.10;;;8.70;99.90;;;;;;4997691;28;20458;-65
2021/03/31 04:46:24;;;;;;;9.30;7.83;;;8.80;99.90;;;;;;4997963;28;20461;-64
2021/03/31 04:48:50;;;;;;;10.90;8.87;;;8.80;99.90;;;;;;4997654;28;20835;-65
2021/03/31 04:51:16;;;;;;;12.07;8.60;;;8.80;99.90;;;;;;4997294;28;20477;-65
2021/03/31 04:53:44;;;;;;;13.30;9.37;;;8.70;99.90;;;;;;4996908;28;21018;-65
2021/03/31 04:56:10;;;;;;;14.47;8.10;;;8.80;99.90;;;;;;4997180;28;20465;-65
2021/03/31 04:58:36;;;;;;;9.87;6.87;;;8.70;99.90;;;;;;4997077;28;21006;-63
2021/03/31 05:01:02;;;;;;;9.10;7.03;;;9.00;99.90;;;;;;4997228;28;20504;-63
2021/03/31 05:03:29;;;;;;;8.47;7.67;;;9.30;99.90;;;;;;4996943;28;20450;-62
2021/03/31 05:05:55;;;;;;;10.10;8.70;;;9.50;99.90;;;;;;4996533;28;20870;-63
2021/03/31 05:08:21;;;;;;;19.00;9.70;;;9.70;99.90;;;;;;4996601;28;20474;-64
2021/03/31 05:10:48;;;;;;;13.03;7.73;;;9.70;99.90;;;;;;4995762;28;20956;-66
2021/03/31 05:13:15;;;;;;;10.57;8.90;;;9.40;99.90;;;;;;4996295;28;20486;-65
2021/03/31 05:15:42;;;;;;;11.63;8.67;;;9.30;99.90;;;;;;4996533;28;20464;-65
2021/03/31 05:18:08;;;;;;;13.03;9.00;;;9.20;99.90;;;;;;4996578;28;20449;-64
2021/03/31 05:20:35;;;;;;;10.93;7.63;;;9.00;99.90;;;;;;4996618;28;20453;-64
2021/03/31 05:23:01;;;;;;;13.00;8.27;;;8.90;99.90;;;;;;4996076;28;20474;-65
2021/03/31 05:25:28;;;;;;;12.10;7.57;;;8.90;99.90;;;;;;4996539;28;20504;-65
2021/03/31 05:27:56;;;;;;;15.67;8.47;;;8.80;99.90;;;;;;4996248;28;20473;-65
2021/03/31 05:30:23;;;;;;;14.93;9.07;;;8.60;99.90;;;;;;4996800;28;20457;-65
2021/03/31 05:32:49;;;;;;;11.13;8.07;;;8.60;99.90;;;;;;4996369;28;20477;-65
2021/03/31 05:35:16;;;;;;;11.13;8.27;;;8.60;99.90;;;;;;4996208;28;20457;-68
2021/03/31 05:37:42;;;;;;;15.63;9.30;;;8.50;99.90;;;;;;4996055;28;20464;-64
2021/03/31 05:40:09;;;;;;;11.50;8.60;;;8.40;99.90;;;;;;4996153;28;20969;-63
2021/03/31 05:42:37;;;;;;;9.30;8.40;;;8.50;99.90;;;;;;4996312;28;20528;-63
2021/03/31 05:45:07;;;;;;;13.67;8.57;;;8.50;99.90;;;;;;4996035;28;20461;-64
2021/03/31 05:47:35;;;;;;;15.07;8.90;;;8.60;99.90;;;;;;4996337;28;20552;-65
2021/03/31 05:50:02;;;;;;;14.80;8.97;;;8.80;99.90;;;;;;4996396;28;20527;-63
2021/03/31 05:52:28;;;;;;;15.37;9.00;;;9.00;99.90;;;;;;4995268;28;20484;-63
2021/03/31 05:54:55;;;;;;;11.63;8.30;;;9.10;99.90;;;;;;4994982;28;20446;-63
2021/03/31 05:57:22;;;;;;;10.97;8.33;;;9.30;99.90;;;;;;4995173;28;20461;-63
2021/03/31 05:59:52;;;;;;;18.93;9.10;;;9.40;99.90;;;;;;4995207;28;20464;-64
2021/03/31 06:02:19;;;;;;;11.43;9.03;;;9.50;99.90;;;;;;4995011;28;20477;-63
2021/03/31 06:04:46;;;;;;;12.30;8.23;;;9.50;99.90;;;;;;4995116;28;20520;-63
2021/03/31 06:07:12;;;;;;;10.33;8.57;;;9.60;99.90;;;;;;4994943;28;20454;-63
2021/03/31 06:10:07;;;;;;;12.20;9.33;;;9.70;99.90;;;;;;4995142;28;20461;-63
2021/03/31 06:12:34;;;;;;;12.13;8.77;;;9.90;99.90;;;;;;4994682;28;20485;-63
2021/03/31 06:15:21;;;;;;;14.40;8.87;;;10.10;99.90;;;;;;4995028;28;20796;-63
2021/03/31 06:17:54;;;;;;;12.37;8.70;;;10.40;99.90;;;;;;4994899;28;20438;-62
2021/03/31 06:20:45;;;;;;;10.63;9.30;;;10.90;99.90;;;;;;4994662;28;20987;-63
2021/03/31 06:23:18;;;;;;;15.63;9.67;;;11.50;99.90;;;;;;4993778;28;20478;-62
2021/03/31 06:25:54;;;;;;;12.60;8.60;;;12.10;99.90;;;;;;4995043;28;20442;-62
2021/03/31 06:28:35;;;;;;;13.87;8.90;;;12.70;99.90;;;;;;4994826;28;20461;-63
2021/03/31 06:31:06;;;;;;;17.03;10.03;;;13.20;99.90;;;;;;4994362;28;20460;-63
2021/03/31 06:33:35;;;;;;;9.80;8.10;;;13.50;99.90;;;;;;4994641;28;20460;-62
2021/03/31 06:36:01;;;;;;;12.73;9.20;;;13.60;99.90;;;;;;4994711;28;20454;-62
2021/03/31 06:38:30;;;;;;;10.93;9.23;;;13.50;99.90;;;;;;4994724;28;20450;-62
2021/03/31 06:40:59;;;;;;;13.50;9.40;;;13.50;99.90;;;;;;4994510;28;20540;-62
2021/03/31 06:43:28;;;;;;;10.40;9.40;;;13.50;99.90;;;;;;4995097;28;20504;-64
2021/03/31 06:45:59;;;;;;;13.70;9.87;;;13.50;99.90;;;;;;4994571;28;20867;-63
2021/03/31 06:48:28;;;;;;;10.53;9.43;;;13.60;99.90;;;;;;4994384;28;20469;-63
2021/03/31 06:50:55;;;;;;;11.27;10.07;;;13.50;99.90;;;;;;4994170;28;20453;-63
2021/03/31 06:53:29;;;;;;;10.23;9.13;;;13.20;99.90;;;;;;4994273;28;20453;-64
2021/03/31 06:56:00;;;;;;;11.40;9.77;;;13.00;99.90;;;;;;4994555;28;20541;-64
2021/03/31 06:58:26;;;;;;;13.97;9.30;;;13.20;99.90;;;;;;4994188;28;20461;-64
2021/03/31 07:00:53;;;;;;;11.93;10.00;;;13.20;99.90;;;;;;4994181;28;20458;-63
2021/03/31 07:03:19;;;;;;;14.80;10.30;;;13.20;99.90;;;;;;4994355;28;20554;-64
2021/03/31 07:05:46;;;;;;;14.43;10.13;;;13.10;99.90;;;;;;4994259;28;20465;-64
2021/03/31 07:08:15;;;;;;;13.23;9.47;;;13.00;99.90;;;;;;4994366;28;20481;-64
2021/03/31 07:10:47;;;;;;;15.30;10.17;;;13.00;99.90;;;;;;4995019;28;20789;-64
2021/03/31 07:13:27;;;;;;;13.50;9.93;;;13.20;99.90;;;;;;4993746;28;20481;-65
2021/03/31 07:15:53;;;;;;;12.43;9.97;;;13.40;99.90;;;;;;4994072;28;20536;-64
2021/03/31 07:18:21;;;;;;;12.10;9.47;;;13.90;99.90;;;;;;4994185;28;20454;-64
2021/03/31 07:20:47;;;;;;;10.53;9.10;;;14.50;98.90;;;;;;4994475;28;20461;-64
2021/03/31 07:23:15;;;;;;;16.53;9.90;;;15.20;97.30;;;;;;4995794;28;20477;-65
2021/03/31 07:25:41;;;;;;;19.00;9.80;;;16.10;94.70;;;;;;4995308;28;20513;-64
2021/03/31 07:28:11;;;;;;;14.40;9.13;;;17.00;92.30;;;;;;4994283;28;20474;-64
2021/03/31 07:30:37;;;;;;;13.53;10.53;;;17.70;88.50;;;;;;4994028;28;20454;-64
2021/03/31 07:33:13;;;;;;;12.57;10.20;;;18.00;86.50;;;;;;4994338;28;20477;-65
2021/03/31 07:35:40;;;;;;;17.87;9.27;;;17.90;83.60;;;;;;4998134;28;20433;-64
2021/03/31 07:38:07;;;;;;;10.83;9.47;;;18.20;83.80;;;;;;4997998;28;20449;-64
2021/03/31 07:40:36;;;;;;;11.90;9.20;;;18.80;81.10;;;;;;4998533;28;20457;-63
2021/03/31 07:43:05;;;;;;;9.67;8.67;;;19.30;79.30;;;;;;4997982;28;20473;-65
2021/03/31 07:45:37;;;;;;;11.13;9.30;;;19.60;76.40;;;;;;4998133;28;20464;-65
2021/03/31 07:48:05;;;;;;;10.53;9.47;;;20.10;76.30;;;;;;4997962;28;20462;-65
2021/03/31 07:50:32;;;;;;;10.73;9.70;;;20.60;74.80;;;;;;4997660;28;20488;-66
2021/03/31 07:52:59;;;;;;;12.67;9.37;;;21.30;70.40;;;;;;4997656;28;20477;-65
2021/03/31 07:55:34;;;;;;;11.17;9.27;;;21.40;68.60;;;;;;4997726;28;20481;-65
2021/03/31 07:58:28;;;;;;;11.23;8.73;;;21.70;65.90;;;;;;4997745;28;20444;-65
2021/03/31 08:01:01;;;;;;;11.20;10.10;;;21.80;65.50;;;;;;4997616;28;20521;-65
2021/03/31 08:03:29;;;;;;;17.43;11.20;;;22.10;63.70;;;;;;4997595;28;20524;-65
2021/03/31 08:06:16;;;;;;;17.00;10.70;;;22.30;63.90;;;;;;4997284;28;20953;-65
2021/03/31 08:08:59;;;;;;;11.13;9.93;;;22.20;60.10;;;;;;4997162;28;20548;-65
2021/03/31 08:11:52;;;;;;;12.50;10.60;;;22.70;62.30;;;;;;4998025;28;20846;-64
2021/03/31 08:14:35;;;;;;;15.97;11.53;;;23.10;60.70;;;;;;4997323;28;20488;-65
2021/03/31 08:17:03;;;;;;;11.63;10.50;;;24.20;59.70;;;;;;4997504;28;20450;-65
2021/03/31 08:19:31;;;;;;;13.30;10.53;;;24.50;60.00;;;;;;4997254;28;20520;-64
2021/03/31 08:21:59;;;;;;;13.07;11.20;;;24.70;59.00;;;;;;4997063;28;20516;-65
2021/03/31 08:24:41;;;;;;;11.37;10.03;;;25.20;57.90;;;;;;4997357;28;20484;-66
2021/03/31 08:27:08;;;;;;;13.10;11.80;;;25.60;56.30;;;;;;4997365;28;20526;-65
2021/03/31 08:29:53;;;;;;;15.37;10.50;;;25.70;54.00;;;;;;4996810;28;20842;-65
2021/03/31 08:32:21;;;;;;;21.20;15.53;;;26.30;54.10;;;;;;4997147;28;20488;-64
2021/03/31 08:34:48;;;;;;;14.37;12.83;;;26.60;52.20;;;;;;4997273;28;20461;-65
2021/03/31 08:37:25;;;;;;;17.20;11.33;;;27.40;52.00;;;;;;4997099;28;20454;-65
2021/03/31 08:39:51;;;;;;;15.50;13.63;;;27.50;52.70;;;;;;4997083;28;20480;-65
2021/03/31 08:42:19;;;;;;;16.67;11.90;;;27.60;50.10;;;;;;4996640;28;20937;-66
2021/03/31 08:44:50;;;;;;;16.83;13.90;;;27.60;51.10;;;;;;4996507;28;20479;-64
2021/03/31 08:47:19;;;;;;;15.70;12.37;;;27.80;50.00;;;;;;4996975;28;20481;-64
2021/03/31 08:49:46;;;;;;;13.13;11.20;;;28.10;48.30;;;;;;4997032;28;20482;-64
2021/03/31 08:52:14;;;;;;;12.63;10.90;;;28.50;49.10;;;;;;4996654;28;20830;-64
2021/03/31 08:54:43;;;;;;;18.33;11.10;;;28.80;47.80;;;;;;4997008;28;20489;-64
2021/03/31 08:57:11;;;;;;;14.10;12.30;;;29.20;47.80;;;;;;4997042;28;20817;-65
2021/03/31 08:59:40;;;;;;;13.30;11.80;;;29.20;45.80;;;;;;4996877;28;20461;-64
2021/03/31 09:02:06;;;;;;;13.93;11.40;;;28.70;48.00;;;;;;4996624;28;21000;-64
2021/03/31 09:04:33;;;;;;;15.47;13.37;;;29.00;48.50;;;;;;4996956;28;20485;-63
2021/03/31 09:07:02;;;;;;;16.00;11.87;;;29.10;47.10;;;;;;4996477;28;20461;-65
2021/03/31 09:09:33;;;;;;;15.40;12.60;;;29.80;45.10;;;;;;4996555;28;20528;-65
2021/03/31 09:12:00;;;;;;;15.60;12.23;;;30.00;45.80;;;;;;4996460;28;20486;-65
2021/03/31 09:14:27;;;;;;;18.00;12.30;;;30.40;45.10;;;;;;4996824;28;20457;-64
2021/03/31 09:16:56;;;;;;;15.93;12.87;;;30.40;43.70;;;;;;4996604;28;20453;-64
2021/03/31 09:19:24;;;;;;;16.20;12.13;;;29.70;44.10;;;;;;4996121;28;20817;-64
2021/03/31 09:21:51;;;;;;;19.27;13.00;;;29.80;45.40;;;;;;4996578;28;20481;-64
2021/03/31 09:24:17;;;;;;;16.10;12.10;;;30.80;42.90;;;;;;4996345;28;20469;-64
2021/03/31 09:26:55;;;;;;;13.30;12.03;;;31.20;46.20;;;;;;4996710;28;20513;-65
2021/03/31 09:29:22;;;;;;;15.60;12.20;;;31.10;44.30;;;;;;4996231;28;20846;-64
2021/03/31 09:31:50;;;;;;;12.93;11.53;;;31.20;44.90;;;;;;4995897;28;20481;-64
2021/03/31 09:34:17;;;;;;;14.50;11.53;;;30.90;45.80;;;;;;4995538;28;20952;-65
2021/03/31 09:36:55;;;;;;;19.60;13.10;;;30.30;44.00;;;;;;4995845;28;20597;-65
2021/03/31 09:39:22;;;;;;;18.07;13.07;;;30.90;42.90;;;;;;4995933;28;20434;-65
2021/03/31 09:41:48;;;;;;;14.93;13.43;;;31.80;41.70;;;;;;4995745;28;20480;-65
2021/03/31 09:44:14;;;;;;;18.07;12.77;;;32.20;40.50;;;;;;4995853;28;20453;-65
2021/03/31 09:46:40;;;;;;;15.60;13.60;;;32.10;41.40;;;;;;4995750;28;20453;-65
2021/03/31 09:49:07;;;;;;;16.80;12.90;;;32.60;39.20;;;;;;4995441;28;20849;-62
2021/03/31 09:51:34;;;;;;;15.47;13.40;;;32.00;39.50;;;;;;4995737;28;20482;-62
2021/03/31 09:54:00;;;;;;;17.00;14.40;;;32.80;42.20;;;;;;4995280;28;20944;-63
2021/03/31 09:56:27;;;;;;;15.20;13.63;;;32.30;40.40;;;;;;4995550;28;20454;-61
2021/03/31 09:58:53;;;;;;;17.20;13.63;;;32.80;40.70;;;;;;4995921;28;20457;-63
2021/03/31 10:01:20;;;;;;;15.87;14.37;;;32.50;38.40;;;;;;4995607;28;20532;-63
2021/03/31 10:03:47;;;;;;;15.13;13.10;;;32.20;38.30;;;;;;4995461;28;20453;-62
2021/03/31 10:06:24;;;;;;;18.00;14.37;;;32.60;40.20;;;;;;4995708;28;20461;-64
2021/03/31 10:08:52;;;;;;;24.20;15.20;;;30.60;40.30;;;;;;4995222;28;20453;-63
2021/03/31 10:11:30;;;;;;;17.87;13.50;;;30.70;42.10;;;;;;4995094;28;20493;-62
2021/03/31 10:13:58;;;;;;;16.30;13.90;;;31.10;42.20;;;;;;4995984;28;20781;-62
2021/03/31 10:16:35;;;;;;;14.90;13.30;;;31.70;39.70;;;;;;4995188;28;20458;-62
2021/03/31 10:19:05;;;;;;;16.93;15.23;;;32.70;40.50;;;;;;4995272;28;20445;-63
2021/03/31 10:21:33;;;;;;;18.87;16.30;;;32.80;38.70;;;;;;4995234;28;20480;-63
2021/03/31 10:24:01;;;;;;;16.13;14.43;;;32.70;38.80;;;;;;4995894;28;20481;-63
2021/03/31 10:26:30;;;;;;;16.20;14.37;;;33.50;38.50;;;;;;4994973;28;20932;-63
2021/03/31 10:28:58;;;;;;;20.53;14.47;;;33.70;38.10;;;;;;4995032;28;20474;-64
2021/03/31 10:31:27;;;;;;;17.93;14.83;;;32.90;37.50;;;;;;4995260;28;20527;-66
2021/03/31 10:33:54;;;;;;;16.83;14.13;;;33.20;39.60;;;;;;4994994;28;20465;-62
2021/03/31 10:36:48;;;;;;;16.20;14.23;;;32.80;37.80;;;;;;4995067;28;20457;-63
2021/03/31 10:39:48;;;;;;;15.90;14.13;;;33.80;39.70;;;;;;4995049;28;20438;-62
2021/03/31 10:50:31;;;;;;;17.83;14.50;;;32.80;37.50;;;;;;4994629;28;20460;-64
2021/03/31 10:52:59;;;;;;;18.23;15.00;;;33.10;36.50;;;;;;4994616;28;20469;-64
2021/03/31 10:55:27;;;;;;;15.90;14.33;;;32.80;36.90;;;;;;4994479;28;20541;-64
2021/03/31 10:57:53;;;;;;;15.73;14.13;;;32.50;36.60;;;;;;4994105;28;20457;-63
2021/03/31 11:00:21;;;;;;;16.60;14.93;;;32.70;36.60;;;;;;4994030;28;20449;-65
2021/03/31 11:02:47;;;;;;;15.83;14.17;;;32.90;39.70;;;;;;4994154;28;20496;-62
2021/03/31 11:05:14;;;;;;;18.83;13.97;;;33.00;38.80;;;;;;4994591;28;20449;-63
2021/03/31 11:07:40;;;;;;;18.07;13.90;;;33.30;38.70;;;;;;4994427;28;20489;-64
2021/03/31 11:10:07;;;;;;;15.80;14.27;;;33.80;36.20;;;;;;4994134;28;20508;-65
2021/03/31 11:12:34;;;;;;;15.10;13.70;;;33.10;40.50;;;;;;4994855;28;20489;-65
2021/03/31 11:15:01;;;;;;;16.67;14.33;;;32.30;38.20;;;;;;4994355;28;20481;-65
2021/03/31 11:17:33;;;;;;;15.90;14.40;;;32.40;39.20;;;;;;4994723;28;20487;-65
2021/03/31 11:20:07;;;;;;;16.57;14.67;;;32.40;36.90;;;;;;4994277;28;20485;-66
2021/03/31 11:27:59;;;;;;;17.30;13.40;;;30.80;42.20;;;;;;4993881;28;20474;-66
2021/03/31 11:30:25;;;;;;;15.93;13.80;;;30.60;39.80;;;;;;4994865;28;20457;-66
2021/03/31 11:32:51;;;;;;;16.67;15.10;;;30.20;41.00;;;;;;4994754;28;20532;-65
2021/03/31 11:35:17;;;;;;;15.80;14.40;;;29.70;42.60;;;;;;4995647;28;20457;-65
2021/03/31 11:37:43;;;;;;;15.27;13.30;;;29.50;40.20;;;;;;4997677;28;20454;-64
2021/03/31 11:40:10;;;;;;;15.83;13.90;;;29.40;42.60;;;;;;4998323;28;20453;-65
2021/03/31 11:42:37;;;;;;;16.17;14.10;;;29.60;41.90;;;;;;4996037;28;20532;-64
2021/03/31 11:45:05;;;;;;;17.53;15.10;;;29.60;43.20;;;;;;4994548;28;20458;-66
2021/03/31 11:47:31;;;;;;;14.73;13.20;;;29.20;42.80;;;;;;4994484;28;20449;-65
2021/03/31 11:49:57;;;;;;;18.67;15.87;;;29.00;45.20;;;;;;4993948;28;20520;-67
2021/03/31 11:52:23;;;;;;;15.93;14.23;;;28.30;42.00;;;;;;4994266;28;20474;-65
2021/03/31 11:54:49;;;;;;;16.13;14.43;;;28.00;41.00;;;;;;4994063;28;20878;-66
2021/03/31 11:57:15;;;;;;;21.63;15.93;;;28.00;42.00;;;;;;4993862;28;20454;-65
2021/03/31 11:59:42;;;;;;;17.17;14.50;;;27.90;41.70;;;;;;4993716;28;20529;-65
2021/03/31 12:02:09;;;;;;;16.17;14.50;;;27.70;43.10;;;;;;4994004;28;20536;-65
2021/03/31 12:04:35;;;;;;;19.30;16.03;;;28.00;44.90;;;;;;4994069;28;20454;-65
2021/03/31 12:07:03;;;;;;;23.40;15.73;;;28.00;42.30;;;;;;4993712;28;20789;-65
2021/03/31 12:09:30;;;;;;;19.50;14.67;;;28.20;45.50;;;;;;4993810;28;20474;-65
2021/03/31 12:11:56;;;;;;;21.10;15.20;;;28.50;44.40;;;;;;4993547;28;20604;-65
2021/03/31 12:14:22;;;;;;;18.40;14.53;;;28.70;42.70;;;;;;4993897;28;20462;-65
2021/03/31 12:16:48;;;;;;;20.17;14.23;;;28.40;42.40;;;;;;4993670;28;20886;-65
2021/03/31 12:19:15;;;;;;;16.60;13.40;;;28.80;42.10;;;;;;4994437;28;20460;-64
2021/03/31 12:21:41;;;;;;;17.90;14.40;;;28.10;41.40;;;;;;4997342;28;20500;-64
2021/03/31 12:24:09;;;;;;;17.87;13.67;;;27.90;41.40;;;;;;4997722;28;20461;-65
2021/03/31 12:26:35;;;;;;;15.20;13.53;;;27.80;42.60;;;;;;4997404;28;20454;-64
2021/03/31 12:29:01;;;;;;;14.37;12.87;;;27.90;43.60;;;;;;4997383;28;20888;-64
2021/03/31 12:31:27;;;;;;;17.37;14.00;;;28.10;43.20;;;;;;4997149;28;20476;-65
2021/03/31 12:33:54;;;;;;;15.20;13.60;;;28.00;41.00;;;;;;4996992;28;20458;-65
2021/03/31 12:36:21;;;;;;;12.90;11.70;;;28.20;42.70;;;;;;4997058;28;20458;-65
2021/03/31 12:38:47;;;;;;;13.87;12.47;;;28.30;44.30;;;;;;4997609;28;20453;-64
2021/03/31 12:41:13;;;;;;;17.83;12.60;;;28.40;43.10;;;;;;4997093;28;20507;-66
2021/03/31 12:43:39;;;;;;;14.30;12.90;;;28.30;43.60;;;;;;4997214;28;20461;-64
2021/03/31 12:46:05;;;;;;;13.20;11.90;;;28.60;44.50;;;;;;4996788;28;20940;-65
2021/03/31 12:48:32;;;;;;;19.03;11.50;;;28.60;43.20;;;;;;4997309;28;20486;-65
2021/03/31 12:51:01;;;;;;;15.33;12.20;;;28.60;42.50;;;;;;4996909;28;20450;-66
2021/03/31 12:53:31;;;;;;;16.13;13.23;;;28.60;41.00;;;;;;4998886;28;20458;-65
2021/03/31 12:55:58;;;;;;;19.40;14.23;;;28.80;39.40;;;;;;4998833;28;20460;-65
2021/03/31 12:58:24;;;;;;;16.23;12.90;;;28.70;40.20;;;;;;4999772;28;20804;-65
2021/03/31 13:00:53;;;;;;;13.37;12.00;;;28.40;41.00;;;;;;5000718;28;20463;-63
2021/03/31 13:03:19;;;;;;;23.13;11.63;;;28.40;40.50;;;;;;4996489;28;20477;-63
2021/03/31 13:05:45;;;;;;;11.83;10.73;;;28.10;41.70;;;;;;4996401;28;20464;-63
2021/03/31 13:08:14;;;;;;;15.00;11.57;;;28.20;41.60;;;;;;4996070;28;20564;-63
2021/03/31 13:10:43;;;;;;;11.93;10.67;;;28.30;41.70;;;;;;4996229;28;20458;-63
2021/03/31 13:13:13;;;;;;;14.90;10.87;;;28.00;42.60;;;;;;4995774;28;20513;-63
2021/03/31 13:15:42;;;;;;;12.47;11.20;;;28.10;41.10;;;;;;4996674;28;20454;-63
2021/03/31 13:22:05;;;;;;;15.90;10.33;;;27.90;41.50;;;;;;4996052;28;20815;-63
2021/03/31 13:24:12;;;;;;;11.57;9.20;;;27.80;43.80;;;;;;4978485;28;20444;-62
2021/03/31 13:26:51;;;;;;;13.63;9.80;;;28.20;42.30;;;;;;4995802;28;20909;-62
2021/03/31 13:29:39;;;;;;;15.87;9.80;;;28.40;43.50;;;;;;4995483;28;20991;-63
2021/03/31 13:32:08;;;;;;;12.40;10.90;;;28.50;41.60;;;;;;4995358;28;20842;-62
2021/03/31 13:34:36;;;;;;;15.50;12.70;;;28.50;42.40;;;;;;4996064;28;20454;-62
2021/03/31 13:37:06;;;;;;;13.00;11.60;;;28.50;42.70;;;;;;4996148;28;20453;-63
2021/03/31 13:39:35;;;;;;;12.80;10.30;;;28.60;40.30;;;;;;4995936;28;20489;-63
2021/03/31 13:42:03;;;;;;;9.93;8.67;;;28.50;41.20;;;;;;4995659;28;20569;-63
2021/03/31 13:44:29;;;;;;;10.07;8.33;;;28.60;39.60;;;;;;4995680;28;20458;-62
2021/03/31 13:46:58;;;;;;;9.67;8.77;;;28.40;40.00;;;;;;4995196;28;20457;-62
2021/03/31 13:49:29;;;;;;;10.03;8.97;;;28.50;38.90;;;;;;4995266;28;20688;-62
2021/03/31 13:52:01;;;;;;;12.97;9.40;;;28.60;38.60;;;;;;4995933;28;20556;-62
2021/03/31 13:54:29;;;;;;;13.70;9.50;;;28.90;40.60;;;;;;4995518;28;20457;-62
2021/03/31 13:56:56;;;;;;;9.77;8.53;;;28.80;38.50;;;;;;4995495;28;20936;-62
2021/03/31 13:59:27;;;;;;;14.03;10.47;;;28.80;40.20;;;;;;4995526;28;20461;-62
2021/03/31 14:01:55;;;;;;;10.80;8.20;;;28.70;39.50;;;;;;4995181;28;21000;-62
2021/03/31 14:04:21;;;;;;;13.40;9.60;;;28.80;41.50;;;;;;4995203;28;20963;-63
2021/03/31 14:06:47;;;;;;;11.70;9.87;;;28.60;41.20;;;;;;4995595;28;20457;-62
2021/03/31 14:09:14;;;;;;;13.50;9.97;;;28.60;40.80;;;;;;4995339;28;20536;-63
2021/03/31 14:11:43;;;;;;;12.50;10.80;;;28.60;43.00;;;;;;4994999;28;20488;-63
2021/03/31 14:14:10;;;;;;;11.67;9.60;;;28.80;42.10;;;;;;4995479;28;20458;-63
2021/03/31 14:16:38;;;;;;;11.83;10.30;;;28.80;41.70;;;;;;4995629;28;20461;-63
2021/03/31 14:19:05;;;;;;;14.27;10.93;;;28.80;41.50;;;;;;4995179;28;20937;-63
2021/03/31 14:21:31;;;;;;;12.10;9.67;;;28.50;40.70;;;;;;4995149;28;20474;-63
2021/03/31 14:23:57;;;;;;;15.97;10.00;;;28.70;40.50;;;;;;4995129;28;20482;-63
2021/03/31 14:26:24;;;;;;;39.27;11.83;;;28.80;41.20;;;;;;4995020;28;20458;-63
2021/03/31 14:28:50;;;;;;;11.97;10.30;;;28.60;39.90;;;;;;4994644;28;20845;-63
2021/03/31 14:31:16;;;;;;;13.17;11.03;;;28.60;38.70;;;;;;4994735;28;20460;-63
2021/03/31 14:33:43;;;;;;;13.63;10.60;;;28.60;38.90;;;;;;4994791;28;20491;-63
2021/03/31 14:36:10;;;;;;;11.23;9.80;;;28.50;40.20;;;;;;4994598;28;20824;-63
2021/03/31 14:38:36;;;;;;;11.73;9.97;;;28.60;40.10;;;;;;4994590;28;20941;-63
2021/03/31 14:41:03;;;;;;;15.27;10.90;;;28.60;38.70;;;;;;4994690;28;20458;-62
2021/03/31 14:43:29;;;;;;;19.40;9.90;;;28.40;40.80;;;;;;4993541;28;21014;-63
2021/03/31 14:45:56;;;;;;;14.60;9.47;;;28.00;41.20;;;;;;4994730;28;20462;-63
2021/03/31 14:48:22;;;;;;;14.73;9.27;;;28.20;44.00;;;;;;4994447;28;20862;-62
2021/03/31 14:50:49;;;;;;;16.07;9.37;;;28.30;44.20;;;;;;4994906;28;20446;-64
2021/03/31 15:01:18;;;;;;;15.73;10.87;;;28.30;44.30;;;;;;4994194;28;20493;-63
2021/03/31 15:03:44;;;;;;;10.27;8.40;;;28.30;40.00;;;;;;4994422;28;20453;-62
2021/03/31 15:06:11;;;;;;;11.37;9.30;;;28.40;42.30;;;;;;4994589;28;20450;-62
2021/03/31 15:08:37;;;;;;;10.13;8.80;;;28.30;42.10;;;;;;4994339;28;20484;-62
2021/03/31 15:11:03;;;;;;;10.87;8.50;;;28.30;42.40;;;;;;4993704;28;20823;-63
2021/03/31 15:13:30;;;;;;;14.83;8.10;;;28.40;41.60;;;;;;4994195;28;20449;-62
2021/03/31 15:15:56;;;;;;;9.30;8.40;;;28.30;41.90;;;;;;4993823;28;20450;-62
2021/03/31 15:18:22;;;;;;;11.47;10.27;;;28.60;41.70;;;;;;4994246;28;20504;-62
2021/03/31 15:20:51;;;;;;;9.47;8.40;;;28.70;39.70;;;;;;4993795;28;20458;-62
2021/03/31 15:23:28;;;;;;;24.93;22.23;;;28.60;40.50;;;;;;4994139;28;20484;-62
2021/03/31 15:25:54;;;;;;;10.87;9.77;;;28.30;42.10;;;;;;4994324;28;20524;-62
2021/03/31 15:28:20;;;;;;;11.60;9.30;;;28.20;41.30;;;;;;4993983;28;20481;-62
2021/03/31 15:30:46;;;;;;;12.10;8.93;;;27.90;40.10;;;;;;4994019;28;20466;-62
2021/03/31 15:33:13;;;;;;;10.93;8.90;;;27.60;41.60;;;;;;4993703;28;20996;-62
2021/03/31 15:35:39;;;;;;;9.50;7.73;;;27.60;42.30;;;;;;4993772;28;20468;-63
2021/03/31 15:38:06;;;;;;;8.63;7.67;;;27.70;41.30;;;;;;4994309;28;20454;-63
2021/03/31 15:40:33;;;;;;;11.50;8.50;;;27.60;40.20;;;;;;4994281;28;20465;-63
2021/03/31 15:42:59;;;;;;;11.33;8.07;;;27.40;41.10;;;;;;4994072;28;20521;-62
2021/03/31 15:45:25;;;;;;;12.63;8.53;;;27.40;42.10;;;;;;4994009;28;20461;-63
2021/03/31 15:47:52;;;;;;;9.10;7.63;;;27.20;43.50;;;;;;4993847;28;20453;-63
2021/03/31 15:50:18;;;;;;;14.00;9.50;;;27.40;42.90;;;;;;4994391;28;20830;-63
2021/03/31 15:52:44;;;;;;;27.43;10.33;;;27.20;42.00;;;;;;4993691;28;20478;-62
2021/03/31 15:55:12;;;;;;;15.73;7.90;;;26.80;41.60;;;;;;4995942;28;20468;-61
2021/03/31 15:57:39;;;;;;;13.03;9.20;;;26.90;41.70;;;;;;4998925;28;20450;-61
2021/03/31 16:00:07;;;;;;;11.57;8.43;;;27.00;41.20;;;;;;4998600;28;20545;-62
2021/03/31 16:02:33;;;;;;;9.97;7.93;;;27.00;41.40;;;;;;4998127;28;20478;-61
2021/03/31 16:05:00;;;;;;;11.40;7.57;;;27.00;41.40;;;;;;4997650;28;20480;-63
2021/03/31 16:07:33;;;;;;;11.87;8.00;;;26.70;41.70;;;;;;4997399;28;20493;-63
2021/03/31 16:10:00;;;;;;;16.20;8.30;;;26.70;42.80;;;;;;4997375;28;20461;-63
2021/03/31 16:12:26;;;;;;;17.90;9.13;;;26.40;42.70;;;;;;4997723;28;20480;-61
2021/03/31 16:14:53;;;;;;;10.97;8.10;;;26.20;42.30;;;;;;4997713;28;20454;-63
2021/03/31 16:17:20;;;;;;;12.43;8.30;;;26.10;43.20;;;;;;4998108;28;20441;-63
2021/03/31 16:19:47;;;;;;;10.73;8.13;;;26.10;42.40;;;;;;4997394;28;20485;-62
2021/03/31 16:22:13;;;;;;;9.83;8.20;;;26.10;42.50;;;;;;4997315;28;20569;-65
2021/03/31 16:24:41;;;;;;;8.87;7.43;;;26.10;42.00;;;;;;4997190;28;20457;-63
2021/03/31 16:27:07;;;;;;;10.30;8.70;;;26.00;44.30;;;;;;4997279;28;20861;-63
2021/03/31 16:29:41;;;;;;;7.60;6.90;;;25.80;42.70;;;;;;4997094;28;20532;-63
2021/03/31 16:32:08;;;;;;;11.00;7.20;;;25.70;42.50;;;;;;4997468;28;20488;-62
2021/03/31 16:34:34;;;;;;;10.70;7.43;;;25.60;42.50;;;;;;4997272;28;20461;-63
2021/03/31 16:37:04;;;;;;;9.70;8.33;;;25.50;42.60;;;;;;4997126;28;20454;-62
2021/03/31 16:39:31;;;;;;;10.67;6.93;;;25.40;42.20;;;;;;4997196;28;20936;-62
2021/03/31 16:41:58;;;;;;;12.27;7.60;;;25.30;43.20;;;;;;4997039;28;20984;-62
2021/03/31 16:44:25;;;;;;;14.27;7.40;;;25.20;42.90;;;;;;4997111;28;20552;-62
2021/03/31 16:46:51;;;;;;;7.53;6.83;;;25.20;42.10;;;;;;5000942;28;20449;-63
2021/03/31 16:49:18;;;;;;;14.33;7.13;;;25.10;43.20;;;;;;4997648;28;20477;-63
2021/03/31 16:51:44;;;;;;;9.33;6.20;;;25.00;43.10;;;;;;4996832;28;20480;-64
2021/03/31 16:54:10;;;;;;;10.73;7.00;;;25.00;43.60;;;;;;4996987;28;20442;-63
2021/03/31 16:56:37;;;;;;;9.23;7.00;;;24.90;42.60;;;;;;4996600;28;20637;-63
2021/03/31 16:59:04;;;;;;;10.33;6.33;;;24.80;43.00;;;;;;4996346;28;20983;-64
2021/03/31 17:01:32;;;;;;;8.10;5.27;;;24.70;44.20;;;;;;4996198;28;20532;-63
2021/03/31 17:03:59;;;;;;;10.43;6.00;;;24.70;44.00;;;;;;4996480;28;20468;-64
2021/03/31 17:06:26;;;;;;;5.63;5.13;;;24.70;44.10;;;;;;4995351;28;20496;-65
2021/03/31 17:08:52;;;;;;;7.57;5.37;;;24.70;43.90;;;;;;4996210;28;20484;-65